sensor_id;sensor_type;location;lat;lon;timestamp;P1;durP1;ratioP1;P2;durP2;ratioP2
14516;SDS011;7344;50.864;4.362;2023-04-03T00:01:07;13.07;;;10.47;;
14516;SDS011;7344;50.864;4.362;2023-04-03T00:03:33;13.80;;;11.10;;
14516;SDS011;7344;50.864;4.362;2023-04-03T00:05:59;13.27;;;10.63;;
14516;SDS011;7344;50.864;4.362;2023-04-03T00:08:25;12.47;;;9.70;;
14516;SDS011;7344;50.864;4.362;2023-04-03T00:10:51;16.23;;;10.40;;
14516;SDS011;7344;50.864;4.362;2023-04-03T00:13:17;11.63;;;9.77;;
14516;SDS011;7344;50.864;4.362;2023-04-03T00:15:43;12.13;;;9.67;;
14516;SDS011;7344;50.864;4.362;2023-04-03T00:18:09;14.83;;;9.87;;
14516;SDS011;7344;50.864;4.362;2023-04-03T00:20:35;14.47;;;9.57;;
14516;SDS011;7344;50.864;4.362;2023-04-03T00:23:01;10.33;;;9.20;;
14516;SDS011;7344;50.864;4.362;2023-04-03T00:25:27;11.50;;;9.07;;
14516;SDS011;7344;50.864;4.362;2023-04-03T00:27:53;11.87;;;9.63;;
14516;SDS011;7344;50.864;4.362;2023-04-03T00:30:20;9.80;;;8.80;;
14516;SDS011;7344;50.864;4.362;2023-04-03T00:32:50;12.87;;;9.90;;
14516;SDS011;7344;50.864;4.362;2023-04-03T00:35:17;11.77;;;9.30;;
14516;SDS011;7344;50.864;4.362;2023-04-03T00:37:43;11.37;;;8.97;;
14516;SDS011;7344;50.864;4.362;2023-04-03T00:40:09;12.07;;;9.40;;
14516;SDS011;7344;50.864;4.362;2023-04-03T00:42:37;10.00;;;8.90;;
14516;SDS011;7344;50.864;4.362;2023-04-03T00:47:29;10.47;;;9.37;;
14516;SDS011;7344;50.864;4.362;2023-04-03T00:49:56;11.27;;;9.90;;
14516;SDS011;7344;50.864;4.362;2023-04-03T00:52:25;12.97;;;9.00;;
14516;SDS011;7344;50.864;4.362;2023-04-03T00:54:54;11.73;;;8.87;;
14516;SDS011;7344;50.864;4.362;2023-04-03T00:57:24;11.57;;;8.80;;
14516;SDS011;7344;50.864;4.362;2023-04-03T00:59:53;11.77;;;8.83;;
14516;SDS011;7344;50.864;4.362;2023-04-03T01:02:22;11.50;;;9.70;;
14516;SDS011;7344;50.864;4.362;2023-04-03T01:04:48;10.80;;;8.80;;
14516;SDS011;7344;50.864;4.362;2023-04-03T01:09:47;12.50;;;9.10;;
14516;SDS011;7344;50.864;4.362;2023-04-03T01:14:46;10.87;;;8.60;;
14516;SDS011;7344;50.864;4.362;2023-04-03T01:25:21;12.17;;;8.73;;
14516;SDS011;7344;50.864;4.362;2023-04-03T01:27:47;11.57;;;8.93;;
14516;SDS011;7344;50.864;4.362;2023-04-03T01:30:13;12.97;;;9.63;;
14516;SDS011;7344;50.864;4.362;2023-04-03T01:32:41;10.60;;;8.47;;
14516;SDS011;7344;50.864;4.362;2023-04-03T01:35:08;11.00;;;9.07;;
14516;SDS011;7344;50.864;4.362;2023-04-03T01:37:34;13.10;;;8.90;;
14516;SDS011;7344;50.864;4.362;2023-04-03T01:40:00;14.37;;;9.40;;
14516;SDS011;7344;50.864;4.362;2023-04-03T01:42:25;11.07;;;9.10;;
14516;SDS011;7344;50.864;4.362;2023-04-03T01:44:51;12.20;;;9.77;;
14516;SDS011;7344;50.864;4.362;2023-04-03T01:47:17;13.37;;;9.73;;
14516;SDS011;7344;50.864;4.362;2023-04-03T01:49:42;12.53;;;9.60;;
14516;SDS011;7344;50.864;4.362;2023-04-03T01:52:08;12.20;;;9.30;;
14516;SDS011;7344;50.864;4.362;2023-04-03T01:54:34;10.00;;;9.00;;
14516;SDS011;7344;50.864;4.362;2023-04-03T01:56:59;12.13;;;9.80;;
14516;SDS011;7344;50.864;4.362;2023-04-03T01:59:25;11.00;;;9.00;;
14516;SDS011;7344;50.864;4.362;2023-04-03T02:01:51;12.17;;;9.53;;
14516;SDS011;7344;50.864;4.362;2023-04-03T02:04:16;11.30;;;8.27;;
14516;SDS011;7344;50.864;4.362;2023-04-03T02:06:42;11.50;;;9.27;;
14516;SDS011;7344;50.864;4.362;2023-04-03T02:09:07;9.93;;;8.50;;
14516;SDS011;7344;50.864;4.362;2023-04-03T02:11:33;12.23;;;8.97;;
14516;SDS011;7344;50.864;4.362;2023-04-03T02:13:59;9.93;;;8.87;;
14516;SDS011;7344;50.864;4.362;2023-04-03T02:16:24;11.40;;;9.33;;
14516;SDS011;7344;50.864;4.362;2023-04-03T02:18:50;12.80;;;9.03;;
14516;SDS011;7344;50.864;4.362;2023-04-03T02:21:16;12.43;;;8.60;;
14516;SDS011;7344;50.864;4.362;2023-04-03T02:23:41;9.40;;;8.50;;
14516;SDS011;7344;50.864;4.362;2023-04-03T02:26:08;10.07;;;8.90;;
14516;SDS011;7344;50.864;4.362;2023-04-03T02:28:36;12.30;;;8.50;;
14516;SDS011;7344;50.864;4.362;2023-04-03T02:31:02;10.53;;;8.80;;
14516;SDS011;7344;50.864;4.362;2023-04-03T02:33:28;10.67;;;8.73;;
14516;SDS011;7344;50.864;4.362;2023-04-03T02:35:55;12.70;;;9.20;;
14516;SDS011;7344;50.864;4.362;2023-04-03T02:38:21;13.60;;;9.33;;
14516;SDS011;7344;50.864;4.362;2023-04-03T02:40:47;11.63;;;9.50;;
14516;SDS011;7344;50.864;4.362;2023-04-03T02:43:13;13.73;;;10.23;;
14516;SDS011;7344;50.864;4.362;2023-04-03T02:45:38;12.73;;;9.67;;
14516;SDS011;7344;50.864;4.362;2023-04-03T02:48:04;13.30;;;9.70;;
14516;SDS011;7344;50.864;4.362;2023-04-03T02:50:30;12.23;;;9.93;;
14516;SDS011;7344;50.864;4.362;2023-04-03T02:52:56;12.60;;;9.97;;
14516;SDS011;7344;50.864;4.362;2023-04-03T02:55:21;10.37;;;9.20;;
14516;SDS011;7344;50.864;4.362;2023-04-03T02:57:47;12.67;;;9.27;;
14516;SDS011;7344;50.864;4.362;2023-04-03T03:00:13;10.63;;;9.40;;
14516;SDS011;7344;50.864;4.362;2023-04-03T03:02:39;12.87;;;9.50;;
14516;SDS011;7344;50.864;4.362;2023-04-03T03:05:05;13.13;;;9.70;;
14516;SDS011;7344;50.864;4.362;2023-04-03T03:07:31;13.43;;;9.60;;
14516;SDS011;7344;50.864;4.362;2023-04-03T03:09:57;11.43;;;9.70;;
14516;SDS011;7344;50.864;4.362;2023-04-03T03:12:22;13.63;;;9.30;;
14516;SDS011;7344;50.864;4.362;2023-04-03T03:14:49;14.43;;;9.77;;
14516;SDS011;7344;50.864;4.362;2023-04-03T03:17:15;15.00;;;9.40;;
14516;SDS011;7344;50.864;4.362;2023-04-03T03:19:41;10.00;;;9.00;;
14516;SDS011;7344;50.864;4.362;2023-04-03T03:22:07;14.10;;;9.90;;
14516;SDS011;7344;50.864;4.362;2023-04-03T03:24:32;10.40;;;9.30;;
14516;SDS011;7344;50.864;4.362;2023-04-03T03:26:58;11.63;;;9.83;;
14516;SDS011;7344;50.864;4.362;2023-04-03T03:29:24;17.87;;;10.47;;
14516;SDS011;7344;50.864;4.362;2023-04-03T03:31:49;12.40;;;10.87;;
14516;SDS011;7344;50.864;4.362;2023-04-03T03:34:15;13.77;;;10.00;;
14516;SDS011;7344;50.864;4.362;2023-04-03T03:36:41;11.47;;;10.07;;
14516;SDS011;7344;50.864;4.362;2023-04-03T03:39:07;13.47;;;9.67;;
14516;SDS011;7344;50.864;4.362;2023-04-03T03:41:32;18.70;;;10.77;;
14516;SDS011;7344;50.864;4.362;2023-04-03T03:43:58;16.37;;;11.00;;
14516;SDS011;7344;50.864;4.362;2023-04-03T03:46:24;12.67;;;9.77;;
14516;SDS011;7344;50.864;4.362;2023-04-03T03:48:49;14.53;;;10.00;;
14516;SDS011;7344;50.864;4.362;2023-04-03T03:51:15;10.53;;;9.47;;
14516;SDS011;7344;50.864;4.362;2023-04-03T03:53:40;11.07;;;9.80;;
14516;SDS011;7344;50.864;4.362;2023-04-03T03:56:06;13.03;;;11.13;;
14516;SDS011;7344;50.864;4.362;2023-04-03T03:58:32;12.50;;;9.90;;
14516;SDS011;7344;50.864;4.362;2023-04-03T04:01:04;15.40;;;10.30;;
14516;SDS011;7344;50.864;4.362;2023-04-03T04:03:32;16.57;;;10.40;;
14516;SDS011;7344;50.864;4.362;2023-04-03T04:05:57;11.93;;;10.43;;
14516;SDS011;7344;50.864;4.362;2023-04-03T04:08:23;22.83;;;10.53;;
14516;SDS011;7344;50.864;4.362;2023-04-03T04:10:49;14.80;;;10.63;;
14516;SDS011;7344;50.864;4.362;2023-04-03T04:13:15;16.03;;;10.93;;
14516;SDS011;7344;50.864;4.362;2023-04-03T04:15:41;19.50;;;10.83;;
14516;SDS011;7344;50.864;4.362;2023-04-03T04:18:08;15.07;;;10.80;;
14516;SDS011;7344;50.864;4.362;2023-04-03T04:20:33;14.90;;;10.83;;
14516;SDS011;7344;50.864;4.362;2023-04-03T04:22:59;15.17;;;11.17;;
14516;SDS011;7344;50.864;4.362;2023-04-03T04:25:25;15.40;;;10.70;;
14516;SDS011;7344;50.864;4.362;2023-04-03T04:27:51;16.97;;;11.73;;
14516;SDS011;7344;50.864;4.362;2023-04-03T04:30:17;14.47;;;10.90;;
14516;SDS011;7344;50.864;4.362;2023-04-03T04:32:42;13.87;;;10.87;;
14516;SDS011;7344;50.864;4.362;2023-04-03T04:35:08;14.47;;;11.43;;
14516;SDS011;7344;50.864;4.362;2023-04-03T04:37:34;15.53;;;10.70;;
14516;SDS011;7344;50.864;4.362;2023-04-03T04:40:00;15.77;;;11.20;;
14516;SDS011;7344;50.864;4.362;2023-04-03T04:42:25;15.97;;;11.00;;
14516;SDS011;7344;50.864;4.362;2023-04-03T04:44:51;14.90;;;11.40;;
14516;SDS011;7344;50.864;4.362;2023-04-03T04:47:17;14.97;;;10.73;;
14516;SDS011;7344;50.864;4.362;2023-04-03T04:49:43;14.23;;;10.53;;
14516;SDS011;7344;50.864;4.362;2023-04-03T04:52:08;15.97;;;11.40;;
14516;SDS011;7344;50.864;4.362;2023-04-03T04:54:34;11.93;;;10.63;;
14516;SDS011;7344;50.864;4.362;2023-04-03T04:57:00;13.07;;;10.77;;
14516;SDS011;7344;50.864;4.362;2023-04-03T04:59:25;17.70;;;10.93;;
14516;SDS011;7344;50.864;4.362;2023-04-03T05:01:51;17.97;;;11.70;;
14516;SDS011;7344;50.864;4.362;2023-04-03T05:04:17;13.93;;;11.23;;
14516;SDS011;7344;50.864;4.362;2023-04-03T05:06:42;16.23;;;11.50;;
14516;SDS011;7344;50.864;4.362;2023-04-03T05:09:08;14.00;;;10.80;;
14516;SDS011;7344;50.864;4.362;2023-04-03T05:11:34;14.60;;;11.70;;
14516;SDS011;7344;50.864;4.362;2023-04-03T05:14:01;16.23;;;10.70;;
14516;SDS011;7344;50.864;4.362;2023-04-03T05:16:26;17.73;;;11.70;;
14516;SDS011;7344;50.864;4.362;2023-04-03T05:18:52;14.60;;;12.17;;
14516;SDS011;7344;50.864;4.362;2023-04-03T05:21:17;18.10;;;12.40;;
14516;SDS011;7344;50.864;4.362;2023-04-03T05:23:43;15.37;;;11.73;;
14516;SDS011;7344;50.864;4.362;2023-04-03T05:26:09;15.33;;;12.03;;
14516;SDS011;7344;50.864;4.362;2023-04-03T05:28:34;16.00;;;11.83;;
14516;SDS011;7344;50.864;4.362;2023-04-03T05:31:00;17.13;;;12.00;;
14516;SDS011;7344;50.864;4.362;2023-04-03T05:33:26;19.93;;;12.67;;
14516;SDS011;7344;50.864;4.362;2023-04-03T05:35:52;17.57;;;12.67;;
14516;SDS011;7344;50.864;4.362;2023-04-03T05:38:19;14.53;;;12.37;;
14516;SDS011;7344;50.864;4.362;2023-04-03T05:40:45;22.63;;;12.37;;
14516;SDS011;7344;50.864;4.362;2023-04-03T05:43:10;15.30;;;12.17;;
14516;SDS011;7344;50.864;4.362;2023-04-03T05:45:36;20.03;;;13.13;;
14516;SDS011;7344;50.864;4.362;2023-04-03T05:48:02;22.07;;;13.80;;
14516;SDS011;7344;50.864;4.362;2023-04-03T05:50:27;15.03;;;12.00;;
14516;SDS011;7344;50.864;4.362;2023-04-03T05:52:54;16.33;;;11.33;;
14516;SDS011;7344;50.864;4.362;2023-04-03T05:55:22;15.70;;;11.00;;
14516;SDS011;7344;50.864;4.362;2023-04-03T05:57:47;16.27;;;9.57;;
14516;SDS011;7344;50.864;4.362;2023-04-03T06:00:13;14.33;;;9.97;;
14516;SDS011;7344;50.864;4.362;2023-04-03T06:02:42;14.23;;;9.83;;
14516;SDS011;7344;50.864;4.362;2023-04-03T06:05:08;13.63;;;8.90;;
14516;SDS011;7344;50.864;4.362;2023-04-03T06:07:36;10.20;;;9.20;;
14516;SDS011;7344;50.864;4.362;2023-04-03T06:10:02;14.07;;;8.80;;
14516;SDS011;7344;50.864;4.362;2023-04-03T06:12:28;10.13;;;8.70;;
14516;SDS011;7344;50.864;4.362;2023-04-03T06:14:54;13.20;;;8.67;;
14516;SDS011;7344;50.864;4.362;2023-04-03T06:17:20;11.00;;;8.77;;
14516;SDS011;7344;50.864;4.362;2023-04-03T06:19:46;11.03;;;8.47;;
14516;SDS011;7344;50.864;4.362;2023-04-03T06:22:12;8.83;;;8.00;;
14516;SDS011;7344;50.864;4.362;2023-04-03T06:24:38;8.80;;;7.97;;
14516;SDS011;7344;50.864;4.362;2023-04-03T06:27:05;10.43;;;7.97;;
14516;SDS011;7344;50.864;4.362;2023-04-03T06:29:30;12.57;;;7.83;;
14516;SDS011;7344;50.864;4.362;2023-04-03T06:31:56;13.13;;;8.00;;
14516;SDS011;7344;50.864;4.362;2023-04-03T06:34:22;10.90;;;8.33;;
14516;SDS011;7344;50.864;4.362;2023-04-03T06:36:59;13.50;;;7.90;;
14516;SDS011;7344;50.864;4.362;2023-04-03T06:39:24;11.50;;;7.70;;
14516;SDS011;7344;50.864;4.362;2023-04-03T06:41:50;8.57;;;7.77;;
14516;SDS011;7344;50.864;4.362;2023-04-03T06:44:16;12.80;;;7.68;;
14516;SDS011;7344;50.864;4.362;2023-04-03T06:46:42;13.63;;;8.77;;
14516;SDS011;7344;50.864;4.362;2023-04-03T06:49:09;12.93;;;7.97;;
14516;SDS011;7344;50.864;4.362;2023-04-03T06:51:35;12.63;;;8.05;;
14516;SDS011;7344;50.864;4.362;2023-04-03T06:54:02;11.17;;;8.50;;
14516;SDS011;7344;50.864;4.362;2023-04-03T06:56:28;10.57;;;9.00;;
14516;SDS011;7344;50.864;4.362;2023-04-03T06:58:54;14.87;;;8.50;;
14516;SDS011;7344;50.864;4.362;2023-04-03T07:01:23;11.27;;;8.33;;
14516;SDS011;7344;50.864;4.362;2023-04-03T07:03:51;12.57;;;8.30;;
14516;SDS011;7344;50.864;4.362;2023-04-03T07:06:17;13.77;;;8.80;;
14516;SDS011;7344;50.864;4.362;2023-04-03T07:08:43;8.80;;;8.00;;
14516;SDS011;7344;50.864;4.362;2023-04-03T07:11:09;9.13;;;8.17;;
14516;SDS011;7344;50.864;4.362;2023-04-03T07:13:36;10.32;;;7.68;;
14516;SDS011;7344;50.864;4.362;2023-04-03T07:16:02;11.45;;;7.88;;
14516;SDS011;7344;50.864;4.362;2023-04-03T07:18:30;8.63;;;7.53;;
14516;SDS011;7344;50.864;4.362;2023-04-03T07:20:57;8.10;;;7.40;;
14516;SDS011;7344;50.864;4.362;2023-04-03T07:23:22;8.57;;;7.67;;
14516;SDS011;7344;50.864;4.362;2023-04-03T07:25:49;7.97;;;7.27;;
14516;SDS011;7344;50.864;4.362;2023-04-03T07:28:16;8.07;;;7.37;;
14516;SDS011;7344;50.864;4.362;2023-04-03T07:30:46;8.73;;;7.30;;
14516;SDS011;7344;50.864;4.362;2023-04-03T07:33:14;8.50;;;7.53;;
14516;SDS011;7344;50.864;4.362;2023-04-03T07:35:41;9.43;;;7.43;;
14516;SDS011;7344;50.864;4.362;2023-04-03T07:38:07;8.57;;;7.43;;
14516;SDS011;7344;50.864;4.362;2023-04-03T07:40:33;8.37;;;7.30;;
14516;SDS011;7344;50.864;4.362;2023-04-03T07:43:00;7.47;;;6.77;;
14516;SDS011;7344;50.864;4.362;2023-04-03T07:45:26;10.90;;;7.03;;
14516;SDS011;7344;50.864;4.362;2023-04-03T07:47:52;10.50;;;7.47;;
14516;SDS011;7344;50.864;4.362;2023-04-03T07:50:18;9.43;;;7.40;;
14516;SDS011;7344;50.864;4.362;2023-04-03T07:52:43;7.10;;;6.50;;
14516;SDS011;7344;50.864;4.362;2023-04-03T07:55:10;14.73;;;6.73;;
14516;SDS011;7344;50.864;4.362;2023-04-03T07:57:36;7.70;;;6.90;;
14516;SDS011;7344;50.864;4.362;2023-04-03T08:00:03;10.80;;;7.10;;
14516;SDS011;7344;50.864;4.362;2023-04-03T08:02:30;10.17;;;7.00;;
14516;SDS011;7344;50.864;4.362;2023-04-03T08:04:57;7.60;;;6.87;;
14516;SDS011;7344;50.864;4.362;2023-04-03T08:07:23;9.18;;;7.10;;
14516;SDS011;7344;50.864;4.362;2023-04-03T08:09:49;7.53;;;6.60;;
14516;SDS011;7344;50.864;4.362;2023-04-03T08:12:15;7.30;;;6.33;;
14516;SDS011;7344;50.864;4.362;2023-04-03T08:14:41;8.37;;;7.57;;
14516;SDS011;7344;50.864;4.362;2023-04-03T08:17:07;7.43;;;6.73;;
14516;SDS011;7344;50.864;4.362;2023-04-03T08:19:36;7.93;;;7.17;;
14516;SDS011;7344;50.864;4.362;2023-04-03T08:22:05;7.27;;;6.40;;
14516;SDS011;7344;50.864;4.362;2023-04-03T08:24:32;9.17;;;6.90;;
14516;SDS011;7344;50.864;4.362;2023-04-03T08:26:58;7.87;;;6.63;;
14516;SDS011;7344;50.864;4.362;2023-04-03T08:29:24;7.10;;;6.40;;
14516;SDS011;7344;50.864;4.362;2023-04-03T08:31:50;9.37;;;6.57;;
14516;SDS011;7344;50.864;4.362;2023-04-03T08:34:16;8.83;;;6.77;;
14516;SDS011;7344;50.864;4.362;2023-04-03T08:36:43;8.20;;;6.87;;
14516;SDS011;7344;50.864;4.362;2023-04-03T08:39:10;7.67;;;6.87;;
14516;SDS011;7344;50.864;4.362;2023-04-03T08:41:37;7.07;;;6.20;;
14516;SDS011;7344;50.864;4.362;2023-04-03T08:49:56;9.13;;;6.50;;
14516;SDS011;7344;50.864;4.362;2023-04-03T08:52:35;6.30;;;5.60;;
14516;SDS011;7344;50.864;4.362;2023-04-03T08:55:06;7.07;;;6.07;;
14516;SDS011;7344;50.864;4.362;2023-04-03T08:57:41;9.90;;;6.47;;
14516;SDS011;7344;50.864;4.362;2023-04-03T09:02:42;6.20;;;5.60;;
14516;SDS011;7344;50.864;4.362;2023-04-03T09:05:13;6.10;;;5.60;;
14516;SDS011;7344;50.864;4.362;2023-04-03T09:10:44;6.70;;;5.90;;
14516;SDS011;7344;50.864;4.362;2023-04-03T09:16:19;9.63;;;5.15;;
14516;SDS011;7344;50.864;4.362;2023-04-03T09:21:45;5.93;;;5.10;;
14516;SDS011;7344;50.864;4.362;2023-04-03T09:24:12;5.63;;;4.82;;
14516;SDS011;7344;50.864;4.362;2023-04-03T09:29:29;5.25;;;4.50;;
14516;SDS011;7344;50.864;4.362;2023-04-03T09:32:01;4.23;;;3.83;;
14516;SDS011;7344;50.864;4.362;2023-04-03T09:34:47;4.90;;;4.27;;
14516;SDS011;7344;50.864;4.362;2023-04-03T09:37:33;5.00;;;4.03;;
14516;SDS011;7344;50.864;4.362;2023-04-03T09:40:02;4.10;;;3.60;;
14516;SDS011;7344;50.864;4.362;2023-04-03T09:42:29;4.13;;;3.13;;
14516;SDS011;7344;50.864;4.362;2023-04-03T09:45:03;4.80;;;3.50;;
14516;SDS011;7344;50.864;4.362;2023-04-03T09:47:31;5.97;;;3.10;;
14516;SDS011;7344;50.864;4.362;2023-04-03T09:52:54;3.43;;;2.63;;
14516;SDS011;7344;50.864;4.362;2023-04-03T09:55:24;4.53;;;3.27;;
14516;SDS011;7344;50.864;4.362;2023-04-03T09:57:59;5.23;;;3.50;;
14516;SDS011;7344;50.864;4.362;2023-04-03T10:00:28;4.13;;;3.33;;
14516;SDS011;7344;50.864;4.362;2023-04-03T10:02:58;3.40;;;3.10;;
14516;SDS011;7344;50.864;4.362;2023-04-03T10:10:47;4.13;;;3.20;;
14516;SDS011;7344;50.864;4.362;2023-04-03T10:13:15;3.60;;;2.67;;
14516;SDS011;7344;50.864;4.362;2023-04-03T10:15:45;2.37;;;2.17;;
14516;SDS011;7344;50.864;4.362;2023-04-03T10:18:43;4.03;;;2.70;;
14516;SDS011;7344;50.864;4.362;2023-04-03T10:27:16;4.70;;;2.70;;
14516;SDS011;7344;50.864;4.362;2023-04-03T10:43:33;4.00;;;2.67;;
14516;SDS011;7344;50.864;4.362;2023-04-03T10:52:13;2.33;;;2.07;;
14516;SDS011;7344;50.864;4.362;2023-04-03T10:54:56;2.90;;;2.60;;
14516;SDS011;7344;50.864;4.362;2023-04-03T10:57:32;3.27;;;2.13;;
14516;SDS011;7344;50.864;4.362;2023-04-03T10:59:59;5.10;;;2.17;;
14516;SDS011;7344;50.864;4.362;2023-04-03T11:07:51;4.17;;;2.60;;
14516;SDS011;7344;50.864;4.362;2023-04-03T11:13:10;6.13;;;2.00;;
14516;SDS011;7344;50.864;4.362;2023-04-03T11:15:40;6.20;;;2.10;;
14516;SDS011;7344;50.864;4.362;2023-04-03T11:18:12;3.60;;;2.67;;
14516;SDS011;7344;50.864;4.362;2023-04-03T11:20:43;2.93;;;2.10;;
14516;SDS011;7344;50.864;4.362;2023-04-03T11:23:19;3.08;;;2.63;;
14516;SDS011;7344;50.864;4.362;2023-04-03T11:25:50;4.17;;;2.50;;
14516;SDS011;7344;50.864;4.362;2023-04-03T11:28:18;4.27;;;3.07;;
14516;SDS011;7344;50.864;4.362;2023-04-03T11:36:05;4.07;;;2.53;;
14516;SDS011;7344;50.864;4.362;2023-04-03T11:38:41;4.60;;;2.57;;
14516;SDS011;7344;50.864;4.362;2023-04-03T11:41:09;3.20;;;1.90;;
14516;SDS011;7344;50.864;4.362;2023-04-03T11:43:41;2.27;;;1.80;;
14516;SDS011;7344;50.864;4.362;2023-04-03T11:46:21;4.38;;;2.88;;
14516;SDS011;7344;50.864;4.362;2023-04-03T11:48:48;4.80;;;2.77;;
14516;SDS011;7344;50.864;4.362;2023-04-03T11:53:45;6.23;;;2.23;;
14516;SDS011;7344;50.864;4.362;2023-04-03T11:59:34;6.13;;;1.97;;
14516;SDS011;7344;50.864;4.362;2023-04-03T12:04:12;5.90;;;3.07;;
14516;SDS011;7344;50.864;4.362;2023-04-03T12:11:46;7.17;;;2.57;;
14516;SDS011;7344;50.864;4.362;2023-04-03T12:14:15;3.47;;;2.60;;
14516;SDS011;7344;50.864;4.362;2023-04-03T12:34:44;4.07;;;1.83;;
14516;SDS011;7344;50.864;4.362;2023-04-03T12:46:09;1.80;;;1.70;;
14516;SDS011;7344;50.864;4.362;2023-04-03T12:48:57;3.30;;;2.13;;
14516;SDS011;7344;50.864;4.362;2023-04-03T12:54:19;2.30;;;1.93;;
14516;SDS011;7344;50.864;4.362;2023-04-03T12:56:44;3.90;;;2.00;;
14516;SDS011;7344;50.864;4.362;2023-04-03T12:59:14;2.67;;;1.90;;
14516;SDS011;7344;50.864;4.362;2023-04-03T13:01:55;2.77;;;1.80;;
14516;SDS011;7344;50.864;4.362;2023-04-03T13:04:22;1.90;;;1.70;;
14516;SDS011;7344;50.864;4.362;2023-04-03T13:06:49;2.07;;;1.90;;
14516;SDS011;7344;50.864;4.362;2023-04-03T13:11:44;2.70;;;1.80;;
14516;SDS011;7344;50.864;4.362;2023-04-03T13:14:23;2.97;;;2.67;;
14516;SDS011;7344;50.864;4.362;2023-04-03T13:16:55;3.03;;;2.60;;
14516;SDS011;7344;50.864;4.362;2023-04-03T13:19:22;2.03;;;1.43;;
14516;SDS011;7344;50.864;4.362;2023-04-03T13:21:51;6.00;;;3.20;;
14516;SDS011;7344;50.864;4.362;2023-04-03T13:24:25;3.37;;;1.90;;
14516;SDS011;7344;50.864;4.362;2023-04-03T13:26:51;2.23;;;1.73;;
14516;SDS011;7344;50.864;4.362;2023-04-03T13:29:22;5.87;;;1.80;;
14516;SDS011;7344;50.864;4.362;2023-04-03T13:31:53;3.43;;;2.23;;
14516;SDS011;7344;50.864;4.362;2023-04-03T13:34:21;2.93;;;1.50;;
14516;SDS011;7344;50.864;4.362;2023-04-03T13:39:24;3.03;;;1.97;;
14516;SDS011;7344;50.864;4.362;2023-04-03T13:41:59;1.93;;;1.70;;
14516;SDS011;7344;50.864;4.362;2023-04-03T13:44:30;2.73;;;1.90;;
14516;SDS011;7344;50.864;4.362;2023-04-03T13:49:58;3.30;;;1.67;;
14516;SDS011;7344;50.864;4.362;2023-04-03T13:52:41;2.47;;;1.67;;
14516;SDS011;7344;50.864;4.362;2023-04-03T13:55:20;4.20;;;1.53;;
14516;SDS011;7344;50.864;4.362;2023-04-03T13:57:59;4.90;;;1.50;;
14516;SDS011;7344;50.864;4.362;2023-04-03T14:02:58;3.03;;;1.77;;
14516;SDS011;7344;50.864;4.362;2023-04-03T14:05:24;2.37;;;2.17;;
14516;SDS011;7344;50.864;4.362;2023-04-03T14:07:51;5.43;;;2.60;;
14516;SDS011;7344;50.864;4.362;2023-04-03T14:10:18;6.60;;;4.97;;
14516;SDS011;7344;50.864;4.362;2023-04-03T14:12:44;6.60;;;5.47;;
14516;SDS011;7344;50.864;4.362;2023-04-03T14:15:18;2.53;;;1.70;;
14516;SDS011;7344;50.864;4.362;2023-04-03T14:17:53;3.13;;;1.87;;
14516;SDS011;7344;50.864;4.362;2023-04-03T14:20:21;5.43;;;2.43;;
14516;SDS011;7344;50.864;4.362;2023-04-03T14:22:49;4.33;;;2.20;;
14516;SDS011;7344;50.864;4.362;2023-04-03T14:25:16;3.53;;;1.97;;
14516;SDS011;7344;50.864;4.362;2023-04-03T14:27:43;3.00;;;1.50;;
14516;SDS011;7344;50.864;4.362;2023-04-03T14:30:19;2.67;;;1.60;;
14516;SDS011;7344;50.864;4.362;2023-04-03T14:32:46;3.50;;;1.80;;
14516;SDS011;7344;50.864;4.362;2023-04-03T14:35:12;1.90;;;1.70;;
14516;SDS011;7344;50.864;4.362;2023-04-03T14:37:39;4.23;;;1.73;;
14516;SDS011;7344;50.864;4.362;2023-04-03T14:40:05;2.87;;;2.10;;
14516;SDS011;7344;50.864;4.362;2023-04-03T14:42:35;3.37;;;2.20;;
14516;SDS011;7344;50.864;4.362;2023-04-03T14:45:04;2.93;;;2.40;;
14516;SDS011;7344;50.864;4.362;2023-04-03T14:47:33;2.37;;;2.13;;
14516;SDS011;7344;50.864;4.362;2023-04-03T14:50:02;3.73;;;2.27;;
14516;SDS011;7344;50.864;4.362;2023-04-03T14:52:33;1.70;;;1.57;;
14516;SDS011;7344;50.864;4.362;2023-04-03T14:55:01;3.63;;;1.97;;
14516;SDS011;7344;50.864;4.362;2023-04-03T14:57:28;2.23;;;1.87;;
14516;SDS011;7344;50.864;4.362;2023-04-03T14:59:55;2.50;;;2.00;;
14516;SDS011;7344;50.864;4.362;2023-04-03T15:04:51;6.67;;;2.27;;
14516;SDS011;7344;50.864;4.362;2023-04-03T15:07:17;2.37;;;2.10;;
14516;SDS011;7344;50.864;4.362;2023-04-03T15:09:43;3.40;;;1.97;;
14516;SDS011;7344;50.864;4.362;2023-04-03T15:12:09;2.57;;;1.77;;
14516;SDS011;7344;50.864;4.362;2023-04-03T15:14:35;4.20;;;2.23;;
14516;SDS011;7344;50.864;4.362;2023-04-03T15:17:01;3.20;;;1.67;;
14516;SDS011;7344;50.864;4.362;2023-04-03T15:19:28;2.10;;;1.80;;
14516;SDS011;7344;50.864;4.362;2023-04-03T15:21:55;6.13;;;2.13;;
14516;SDS011;7344;50.864;4.362;2023-04-03T15:24:20;1.90;;;1.60;;
14516;SDS011;7344;50.864;4.362;2023-04-03T15:26:46;1.83;;;1.40;;
14516;SDS011;7344;50.864;4.362;2023-04-03T15:29:11;1.50;;;1.40;;
14516;SDS011;7344;50.864;4.362;2023-04-03T15:31:37;4.00;;;1.40;;
14516;SDS011;7344;50.864;4.362;2023-04-03T15:34:03;3.33;;;2.27;;
14516;SDS011;7344;50.864;4.362;2023-04-03T15:36:28;2.03;;;1.87;;
14516;SDS011;7344;50.864;4.362;2023-04-03T15:38:54;2.97;;;1.90;;
14516;SDS011;7344;50.864;4.362;2023-04-03T15:41:20;1.90;;;1.70;;
14516;SDS011;7344;50.864;4.362;2023-04-03T15:43:45;3.67;;;2.40;;
14516;SDS011;7344;50.864;4.362;2023-04-03T15:46:11;2.87;;;1.37;;
14516;SDS011;7344;50.864;4.362;2023-04-03T15:48:38;1.73;;;1.63;;
14516;SDS011;7344;50.864;4.362;2023-04-03T15:51:04;1.60;;;1.30;;
14516;SDS011;7344;50.864;4.362;2023-04-03T15:53:31;6.27;;;1.97;;
14516;SDS011;7344;50.864;4.362;2023-04-03T15:55:57;3.37;;;2.20;;
14516;SDS011;7344;50.864;4.362;2023-04-03T15:58:22;2.00;;;1.60;;
14516;SDS011;7344;50.864;4.362;2023-04-03T16:00:48;1.87;;;1.77;;
14516;SDS011;7344;50.864;4.362;2023-04-03T16:03:18;3.53;;;2.20;;
14516;SDS011;7344;50.864;4.362;2023-04-03T16:05:46;3.07;;;2.03;;
14516;SDS011;7344;50.864;4.362;2023-04-03T16:08:12;2.37;;;1.80;;
14516;SDS011;7344;50.864;4.362;2023-04-03T16:10:39;2.50;;;1.80;;
14516;SDS011;7344;50.864;4.362;2023-04-03T16:13:05;3.07;;;2.00;;
14516;SDS011;7344;50.864;4.362;2023-04-03T16:15:31;2.10;;;1.90;;
14516;SDS011;7344;50.864;4.362;2023-04-03T16:17:59;2.75;;;2.40;;
14516;SDS011;7344;50.864;4.362;2023-04-03T16:20:26;2.80;;;1.73;;
14516;SDS011;7344;50.864;4.362;2023-04-03T16:22:52;2.70;;;2.23;;
14516;SDS011;7344;50.864;4.362;2023-04-03T16:25:18;5.20;;;2.43;;
14516;SDS011;7344;50.864;4.362;2023-04-03T16:27:44;3.67;;;2.77;;
14516;SDS011;7344;50.864;4.362;2023-04-03T16:30:10;3.23;;;2.37;;
14516;SDS011;7344;50.864;4.362;2023-04-03T16:32:36;3.30;;;2.30;;
14516;SDS011;7344;50.864;4.362;2023-04-03T16:35:03;2.93;;;1.87;;
14516;SDS011;7344;50.864;4.362;2023-04-03T16:37:30;3.43;;;2.43;;
14516;SDS011;7344;50.864;4.362;2023-04-03T16:39:56;3.93;;;2.00;;
14516;SDS011;7344;50.864;4.362;2023-04-03T16:42:23;2.37;;;2.17;;
14516;SDS011;7344;50.864;4.362;2023-04-03T16:44:49;2.93;;;2.57;;
14516;SDS011;7344;50.864;4.362;2023-04-03T16:47:15;2.27;;;2.07;;
14516;SDS011;7344;50.864;4.362;2023-04-03T16:49:44;5.47;;;2.20;;
14516;SDS011;7344;50.864;4.362;2023-04-03T16:52:10;3.17;;;2.00;;
14516;SDS011;7344;50.864;4.362;2023-04-03T16:54:35;3.73;;;2.77;;
14516;SDS011;7344;50.864;4.362;2023-04-03T16:57:01;2.87;;;2.60;;
14516;SDS011;7344;50.864;4.362;2023-04-03T16:59:27;4.50;;;2.00;;
14516;SDS011;7344;50.864;4.362;2023-04-03T17:01:53;3.63;;;2.20;;
14516;SDS011;7344;50.864;4.362;2023-04-03T17:04:19;2.20;;;1.87;;
14516;SDS011;7344;50.864;4.362;2023-04-03T17:06:44;4.77;;;2.23;;
14516;SDS011;7344;50.864;4.362;2023-04-03T17:09:10;4.57;;;2.50;;
14516;SDS011;7344;50.864;4.362;2023-04-03T17:11:37;7.87;;;2.17;;
14516;SDS011;7344;50.864;4.362;2023-04-03T17:14:03;4.27;;;2.37;;